Time;durP1;ratioP1;P1;durP2;ratioP2;P2;SDS_P1;SDS_P2;PMS_P1;PMS_P2;Temp;Humidity;BMP_temperature;BMP_pressure;BME280_temperature;BME280_humidity;BME280_pressure;Samples;Min_cycle;Max_cycle;Signal;HPM_P1;HPM_P2
2020/12/12 00:02:58;;;;;;;39.13;20.20;;;;;;;;;;5001901;28;21224;-77
2020/12/12 00:06:03;;;;;;;40.53;19.50;;;;;;;;;;5003116;28;20652;-77
2020/12/12 00:09:07;;;;;;;40.03;20.70;;;;;;;;;;5002561;28;20549;-78
2020/12/12 00:12:11;;;;;;;34.93;19.30;;;;;;;;;;4984786;28;20601;-78
2020/12/12 00:15:15;;;;;;;38.33;19.53;;;;;;;;;;4984605;28;20623;-78
2020/12/12 00:18:19;;;;;;;37.77;19.03;;;;;;;;;;4997406;28;20537;-78
2020/12/12 00:21:24;;;;;;;33.07;18.83;;;;;;;;;;5000028;28;21003;-78
2020/12/12 00:24:28;;;;;;;34.43;18.63;;;;;;;;;;4988621;28;20581;-78
2020/12/12 00:27:32;;;;;;;40.87;19.83;;;;;;;;;;4987712;28;20616;-78
2020/12/12 00:30:38;;;;;;;33.43;18.97;;;;;;;;;;5001014;28;20623;-78
2020/12/12 00:33:43;;;;;;;32.10;18.80;;;;;;;;;;5007132;28;20592;-78
2020/12/12 00:36:49;;;;;;;37.53;19.50;;;;;;;;;;4996487;28;20627;-78
2020/12/12 00:39:52;;;;;;;31.03;17.77;;;;;;;;;;5011907;28;20598;-78
2020/12/12 00:42:56;;;;;;;31.67;17.80;;;;;;;;;;4983814;28;20648;-78
2020/12/12 00:46:01;;;;;;;35.50;19.17;;;;;;;;;;5007855;28;21220;-78
2020/12/12 00:49:07;;;;;;;34.80;18.50;;;;;;;;;;4997043;28;20615;-78
2020/12/12 00:52:12;;;;;;;32.00;18.43;;;;;;;;;;5007666;28;21055;-78
2020/12/12 00:55:16;;;;;;;34.40;18.90;;;;;;;;;;5019055;28;20553;-77
2020/12/12 00:58:21;;;;;;;35.13;18.67;;;;;;;;;;4996955;28;20541;-78
2020/12/12 01:01:25;;;;;;;35.43;19.20;;;;;;;;;;5006756;28;20632;-78
2020/12/12 01:04:29;;;;;;;35.33;19.33;;;;;;;;;;5016804;28;20596;-78
2020/12/12 01:07:33;;;;;;;32.07;17.60;;;;;;;;;;4988302;28;20620;-78
2020/12/12 01:10:40;;;;;;;32.90;19.50;;;;;;;;;;4989434;28;20967;-78
2020/12/12 01:13:44;;;;;;;34.73;19.27;;;;;;;;;;5020068;28;20537;-78
2020/12/12 01:16:48;;;;;;;34.83;19.53;;;;;;;;;;5007885;28;20627;-78
2020/12/12 01:19:52;;;;;;;31.20;17.87;;;;;;;;;;5007033;28;21185;-78
2020/12/12 01:22:57;;;;;;;34.03;19.27;;;;;;;;;;5007862;28;20646;-78
2020/12/12 01:26:01;;;;;;;34.00;19.73;;;;;;;;;;5003959;28;20652;-77
2020/12/12 01:29:05;;;;;;;33.17;18.30;;;;;;;;;;4987215;28;21154;-78
2020/12/12 01:32:09;;;;;;;34.53;18.67;;;;;;;;;;4998414;28;20550;-78
2020/12/12 01:35:13;;;;;;;32.30;19.07;;;;;;;;;;4987205;28;20888;-78
2020/12/12 01:38:18;;;;;;;32.07;17.80;;;;;;;;;;5003053;28;20631;-77
2020/12/12 01:41:22;;;;;;;31.93;17.93;;;;;;;;;;4988510;28;20962;-78
2020/12/12 01:44:26;;;;;;;33.43;18.43;;;;;;;;;;4999425;28;20541;-78
2020/12/12 01:47:30;;;;;;;32.53;16.93;;;;;;;;;;4975765;28;20952;-78
2020/12/12 01:50:36;;;;;;;35.23;18.10;;;;;;;;;;4996982;28;21158;-77
2020/12/12 01:53:40;;;;;;;34.60;18.10;;;;;;;;;;5006111;28;20593;-78
2020/12/12 01:56:49;;;;;;;32.20;18.00;;;;;;;;;;5005617;28;20619;-78
2020/12/12 01:59:55;;;;;;;31.23;17.20;;;;;;;;;;4986500;28;20542;-78
2020/12/12 02:03:02;;;;;;;39.13;18.83;;;;;;;;;;4985752;28;20649;-77
2020/12/12 02:06:10;;;;;;;35.83;18.43;;;;;;;;;;4982415;28;20649;-77
2020/12/12 02:09:14;;;;;;;33.47;18.67;;;;;;;;;;4997562;28;21218;-77
2020/12/12 02:12:18;;;;;;;32.60;18.57;;;;;;;;;;4997368;28;20534;-77
2020/12/12 02:15:22;;;;;;;37.33;19.63;;;;;;;;;;4997616;28;20545;-78
2020/12/12 02:18:27;;;;;;;35.80;18.43;;;;;;;;;;4984137;28;21162;-77
2020/12/12 02:21:31;;;;;;;33.60;17.50;;;;;;;;;;5003086;28;21093;-77
2020/12/12 02:24:35;;;;;;;34.47;18.63;;;;;;;;;;5014843;28;20544;-77
2020/12/12 02:27:40;;;;;;;34.83;18.80;;;;;;;;;;5010264;28;20644;-77
2020/12/12 02:30:44;;;;;;;36.00;18.67;;;;;;;;;;4994621;28;20616;-77
2020/12/12 02:33:48;;;;;;;39.43;19.43;;;;;;;;;;5010415;28;20924;-77
2020/12/12 02:36:52;;;;;;;36.57;19.00;;;;;;;;;;4997494;28;20645;-77
2020/12/12 02:39:56;;;;;;;35.17;18.43;;;;;;;;;;4971161;28;20593;-77
2020/12/12 02:43:00;;;;;;;35.17;18.63;;;;;;;;;;4982460;28;20585;-77
2020/12/12 02:46:04;;;;;;;36.23;18.53;;;;;;;;;;4987621;28;20651;-77
2020/12/12 02:49:08;;;;;;;35.00;18.13;;;;;;;;;;4979890;28;20973;-77
2020/12/12 02:52:13;;;;;;;31.53;16.63;;;;;;;;;;4983305;28;20942;-77
2020/12/12 02:55:17;;;;;;;34.90;17.67;;;;;;;;;;4982497;28;21174;-77
2020/12/12 02:58:21;;;;;;;34.93;19.13;;;;;;;;;;4982851;28;20604;-77
2020/12/12 03:01:25;;;;;;;34.03;18.80;;;;;;;;;;4986851;28;20929;-77
2020/12/12 03:04:29;;;;;;;32.63;18.77;;;;;;;;;;5013537;28;20530;-77
2020/12/12 03:07:34;;;;;;;33.50;17.57;;;;;;;;;;5013936;28;20632;-77
2020/12/12 03:10:38;;;;;;;33.07;17.70;;;;;;;;;;5000048;28;20885;-77
2020/12/12 03:13:42;;;;;;;32.30;17.07;;;;;;;;;;4971836;28;20542;-77
2020/12/12 03:16:47;;;;;;;33.90;18.80;;;;;;;;;;4982841;28;20664;-77
2020/12/12 03:19:51;;;;;;;30.17;17.50;;;;;;;;;;4982419;28;20597;-77
2020/12/12 03:22:55;;;;;;;32.53;17.17;;;;;;;;;;5014546;28;20635;-77
2020/12/12 03:25:59;;;;;;;33.13;16.67;;;;;;;;;;5012955;28;20596;-76
2020/12/12 03:29:03;;;;;;;33.03;18.20;;;;;;;;;;5013949;28;20895;-77
2020/12/12 03:32:10;;;;;;;33.13;18.03;;;;;;;;;;4988160;28;20601;-77
2020/12/12 03:35:14;;;;;;;33.10;17.20;;;;;;;;;;4981966;28;20559;-77
2020/12/12 03:38:18;;;;;;;32.03;17.87;;;;;;;;;;4993714;28;20600;-77
2020/12/12 03:41:22;;;;;;;31.57;16.73;;;;;;;;;;5004522;28;20593;-77
2020/12/12 03:44:26;;;;;;;32.57;17.70;;;;;;;;;;4982123;28;20538;-77
2020/12/12 03:47:31;;;;;;;34.30;17.60;;;;;;;;;;4982332;28;20645;-77
2020/12/12 03:50:34;;;;;;;31.90;17.43;;;;;;;;;;4998349;28;20541;-77
2020/12/12 03:53:39;;;;;;;30.13;17.57;;;;;;;;;;5005311;28;20904;-77
2020/12/12 03:56:43;;;;;;;29.43;16.57;;;;;;;;;;4996175;28;20652;-77
2020/12/12 03:59:47;;;;;;;33.47;18.00;;;;;;;;;;4986227;28;20553;-77
2020/12/12 04:02:51;;;;;;;30.90;18.20;;;;;;;;;;5003165;28;20629;-77
2020/12/12 04:05:55;;;;;;;36.43;18.83;;;;;;;;;;5017037;28;20541;-77
2020/12/12 04:08:59;;;;;;;36.13;18.43;;;;;;;;;;5016825;28;20888;-77
2020/12/12 04:12:03;;;;;;;33.63;17.23;;;;;;;;;;4993280;28;20608;-77
2020/12/12 04:15:07;;;;;;;32.60;17.70;;;;;;;;;;4986241;28;20550;-77
2020/12/12 04:18:11;;;;;;;32.33;18.57;;;;;;;;;;4997380;28;20545;-77
2020/12/12 04:21:15;;;;;;;34.83;18.30;;;;;;;;;;4989554;28;21192;-77
2020/12/12 04:24:19;;;;;;;33.77;18.23;;;;;;;;;;4993700;28;20600;-76
2020/12/12 04:27:23;;;;;;;33.20;18.90;;;;;;;;;;5004357;28;20623;-77
2020/12/12 04:30:27;;;;;;;31.90;17.73;;;;;;;;;;5003966;28;20631;-77
2020/12/12 04:33:32;;;;;;;31.33;16.63;;;;;;;;;;5016222;28;20592;-77
2020/12/12 04:36:36;;;;;;;32.40;18.00;;;;;;;;;;5004498;28;20624;-77
2020/12/12 04:39:40;;;;;;;33.27;17.47;;;;;;;;;;4995263;28;21170;-77
2020/12/12 04:42:45;;;;;;;30.07;16.17;;;;;;;;;;4986984;28;20593;-77
2020/12/12 04:45:50;;;;;;;34.30;19.00;;;;;;;;;;5016101;28;20889;-77
2020/12/12 04:48:55;;;;;;;32.37;18.13;;;;;;;;;;4995410;28;20585;-77
2020/12/12 04:52:02;;;;;;;34.17;18.83;;;;;;;;;;4996874;28;20545;-77
2020/12/12 04:55:07;;;;;;;33.27;18.97;;;;;;;;;;5002419;28;20588;-77
2020/12/12 04:58:14;;;;;;;31.73;17.33;;;;;;;;;;5016397;28;21099;-77
2020/12/12 05:01:19;;;;;;;31.13;17.13;;;;;;;;;;4994482;28;20621;-77
2020/12/12 05:04:23;;;;;;;35.07;19.13;;;;;;;;;;4984219;28;20665;-77
2020/12/12 05:07:27;;;;;;;34.37;18.37;;;;;;;;;;4997247;28;20617;-77
2020/12/12 05:10:39;;;;;;;36.33;18.87;;;;;;;;;;4984646;28;20889;-77
2020/12/12 05:13:45;;;;;;;37.10;18.30;;;;;;;;;;4984488;28;20546;-77
2020/12/12 05:16:50;;;;;;;34.07;17.80;;;;;;;;;;5002167;28;20667;-77
2020/12/12 05:19:58;;;;;;;37.93;19.53;;;;;;;;;;5001409;28;20541;-77
2020/12/12 05:23:12;;;;;;;38.47;19.83;;;;;;;;;;4996467;28;20958;-77
2020/12/12 05:26:17;;;;;;;34.00;18.60;;;;;;;;;;4996140;28;20629;-77
2020/12/12 05:29:23;;;;;;;37.87;19.13;;;;;;;;;;4984526;28;20549;-77
2020/12/12 05:32:27;;;;;;;39.27;20.27;;;;;;;;;;4993354;28;20593;-77
2020/12/12 05:35:32;;;;;;;35.60;19.77;;;;;;;;;;5003920;28;20541;-77
2020/12/12 05:38:36;;;;;;;37.80;19.20;;;;;;;;;;5015170;28;20588;-77
2020/12/12 05:41:42;;;;;;;35.37;18.97;;;;;;;;;;5003756;28;20556;-77
2020/12/12 05:44:48;;;;;;;35.07;18.57;;;;;;;;;;5021700;23;20690;-71
2020/12/12 05:47:52;;;;;;;37.73;18.90;;;;;;;;;;4994556;28;20645;-71
2020/12/12 05:50:57;;;;;;;35.70;18.83;;;;;;;;;;4997032;28;20546;-71
2020/12/12 05:54:01;;;;;;;37.80;19.00;;;;;;;;;;4973996;28;20546;-72
2020/12/12 05:57:05;;;;;;;35.87;19.20;;;;;;;;;;4984529;28;20632;-71
2020/12/12 06:00:10;;;;;;;41.93;20.57;;;;;;;;;;4984142;28;20550;-71
2020/12/12 06:03:31;;;;;;;37.20;19.73;;;;;;;;;;4995990;28;20989;-72
2020/12/12 06:06:46;;;;;;;38.67;18.90;;;;;;;;;;4995428;28;20660;-71
2020/12/12 06:09:56;;;;;;;37.40;19.93;;;;;;;;;;4996382;28;20896;-71
2020/12/12 06:13:03;;;;;;;42.17;20.07;;;;;;;;;;4995989;28;20550;-71
2020/12/12 06:16:07;;;;;;;36.83;19.33;;;;;;;;;;4984313;28;20612;-71
2020/12/12 06:19:16;;;;;;;35.90;19.50;;;;;;;;;;4984468;28;20549;-71
2020/12/12 06:22:22;;;;;;;38.53;20.87;;;;;;;;;;4984096;28;20545;-71
2020/12/12 06:25:27;;;;;;;36.27;19.33;;;;;;;;;;4972630;28;20550;-71
2020/12/12 06:28:37;;;;;;;41.07;21.00;;;;;;;;;;4995239;28;20589;-71
2020/12/12 06:31:43;;;;;;;36.20;20.00;;;;;;;;;;4995516;28;20550;-71
2020/12/12 06:34:51;;;;;;;39.63;20.57;;;;;;;;;;4995617;28;20585;-71
2020/12/12 06:37:58;;;;;;;36.23;20.30;;;;;;;;;;4984069;28;20617;-71
2020/12/12 06:41:04;;;;;;;35.47;18.47;;;;;;;;;;4994520;28;20593;-71
2020/12/12 06:44:08;;;;;;;39.37;20.87;;;;;;;;;;4995537;28;20644;-71
2020/12/12 06:47:12;;;;;;;40.17;20.43;;;;;;;;;;4995488;28;20628;-71
2020/12/12 06:50:23;;;;;;;44.17;21.93;;;;;;;;;;4995636;28;21167;-71
2020/12/12 06:53:29;;;;;;;42.93;20.93;;;;;;;;;;4995326;28;20546;-71
2020/12/12 06:56:34;;;;;;;39.83;20.43;;;;;;;;;;4995146;28;20621;-71
2020/12/12 06:59:38;;;;;;;42.23;21.43;;;;;;;;;;4994957;28;20590;-71
2020/12/12 07:03:06;;;;;;;39.83;21.90;;;;;;;;;;4995132;28;20915;-71
2020/12/12 07:06:10;;;;;;;39.30;21.07;;;;;;;;;;4995275;28;20629;-71
2020/12/12 07:09:15;;;;;;;38.73;20.53;;;;;;;;;;4966860;28;20578;-71
2020/12/12 07:12:21;;;;;;;37.03;20.13;;;;;;;;;;4975571;28;20554;-71
2020/12/12 07:15:33;;;;;;;42.57;21.20;;;;;;;;;;4955874;28;20586;-71
2020/12/12 07:18:38;;;;;;;43.07;21.10;;;;;;;;;;4994634;28;20542;-70
2020/12/12 07:21:42;;;;;;;41.10;21.60;;;;;;;;;;4994121;28;20593;-71
2020/12/12 07:24:46;;;;;;;36.77;20.57;;;;;;;;;;4952035;28;20645;-71
2020/12/12 07:27:50;;;;;;;40.17;20.60;;;;;;;;;;4974814;28;20629;-71
2020/12/12 07:30:54;;;;;;;41.47;20.30;;;;;;;;;;4962988;28;20555;-71
2020/12/12 07:34:01;;;;;;;41.67;21.20;;;;;;;;;;4974822;28;20546;-71
2020/12/12 07:37:07;;;;;;;38.43;20.63;;;;;;;;;;4970218;28;20649;-71
2020/12/12 07:40:11;;;;;;;39.87;20.50;;;;;;;;;;4981590;28;20617;-71
2020/12/12 07:43:16;;;;;;;42.03;20.27;;;;;;;;;;4994259;28;20921;-70
2020/12/12 07:46:23;;;;;;;38.23;19.83;;;;;;;;;;4994120;28;20636;-71
2020/12/12 07:49:29;;;;;;;39.77;20.03;;;;;;;;;;4993923;28;20589;-70
2020/12/12 07:52:33;;;;;;;38.77;20.80;;;;;;;;;;4975217;28;20539;-70
2020/12/12 07:55:45;;;;;;;36.73;19.27;;;;;;;;;;4975074;28;20886;-71
2020/12/12 07:59:13;;;;;;;38.90;19.83;;;;;;;;;;4974730;28;20543;-71
2020/12/12 08:02:17;;;;;;;38.27;19.37;;;;;;;;;;4973784;28;20585;-71
2020/12/12 08:05:21;;;;;;;39.13;19.53;;;;;;;;;;4994191;28;20589;-71
2020/12/12 08:08:35;;;;;;;41.33;19.73;;;;;;;;;;4993683;28;20598;-70
2020/12/12 08:11:39;;;;;;;38.60;19.53;;;;;;;;;;4974548;28;20930;-71
2020/12/12 08:14:45;;;;;;;39.57;20.00;;;;;;;;;;4993336;28;20566;-71
2020/12/12 08:17:50;;;;;;;38.80;19.63;;;;;;;;;;4974436;28;20618;-71
2020/12/12 08:20:54;;;;;;;41.47;19.97;;;;;;;;;;4974572;28;20530;-71
2020/12/12 08:23:59;;;;;;;37.30;19.43;;;;;;;;;;4974462;28;20598;-71
2020/12/12 08:27:11;;;;;;;36.40;18.70;;;;;;;;;;4987971;28;20653;-71
2020/12/12 08:30:15;;;;;;;35.20;19.30;;;;;;;;;;4993771;28;20546;-71
2020/12/12 08:33:20;;;;;;;38.83;20.20;;;;;;;;;;4994007;28;20585;-70
2020/12/12 08:36:28;;;;;;;37.93;19.57;;;;;;;;;;4997258;28;20620;-71
2020/12/12 08:39:32;;;;;;;36.73;19.20;;;;;;;;;;4997282;28;20597;-71
2020/12/12 08:42:36;;;;;;;35.47;18.60;;;;;;;;;;4984900;28;20946;-70
2020/12/12 08:45:55;;;;;;;35.73;19.40;;;;;;;;;;4997039;28;20653;-71
2020/12/12 08:48:59;;;;;;;36.90;18.57;;;;;;;;;;4997310;28;20601;-71
2020/12/12 08:52:03;;;;;;;34.40;18.70;;;;;;;;;;4997452;28;20600;-71
2020/12/12 08:55:11;;;;;;;33.47;18.10;;;;;;;;;;4977428;28;20550;-71
2020/12/12 08:58:15;;;;;;;34.97;20.00;;;;;;;;;;4972637;28;20597;-71
2020/12/12 09:01:42;;;;;;;33.30;17.90;;;;;;;;;;4984893;28;20589;-71
2020/12/12 09:04:46;;;;;;;34.20;18.43;;;;;;;;;;4973981;28;20589;-71
2020/12/12 09:07:50;;;;;;;35.67;19.00;;;;;;;;;;4996771;28;20644;-71
2020/12/12 09:11:09;;;;;;;36.27;19.47;;;;;;;;;;4996759;28;20554;-71
2020/12/12 09:14:14;;;;;;;31.90;18.77;;;;;;;;;;4996993;28;20906;-71
2020/12/12 09:17:19;;;;;;;32.83;18.43;;;;;;;;;;4996446;28;20644;-71
2020/12/12 09:20:22;;;;;;;34.40;18.90;;;;;;;;;;4985228;28;20546;-71
2020/12/12 09:23:27;;;;;;;28.13;17.43;;;;;;;;;;4985172;28;20550;-71
2020/12/12 09:26:31;;;;;;;30.97;17.13;;;;;;;;;;4997332;28;20650;-71
2020/12/12 09:29:35;;;;;;;28.00;16.80;;;;;;;;;;4997443;28;20541;-71
2020/12/12 09:32:39;;;;;;;29.17;16.67;;;;;;;;;;4996305;28;20597;-71
2020/12/12 09:35:43;;;;;;;29.43;16.93;;;;;;;;;;4996620;28;20596;-71
2020/12/12 09:38:48;;;;;;;30.67;17.63;;;;;;;;;;4996093;28;20597;-71
2020/12/12 09:41:58;;;;;;;27.47;16.50;;;;;;;;;;4977167;28;20554;-71
2020/12/12 09:45:02;;;;;;;31.37;17.30;;;;;;;;;;4980966;28;20661;-72
2020/12/12 09:48:07;;;;;;;28.07;16.63;;;;;;;;;;4996544;28;21145;-71
2020/12/12 09:51:13;;;;;;;28.27;17.20;;;;;;;;;;4997155;28;20545;-72
2020/12/12 09:54:17;;;;;;;26.67;16.50;;;;;;;;;;4965252;28;20590;-72
2020/12/12 09:57:25;;;;;;;30.17;16.87;;;;;;;;;;4984733;28;20644;-71
2020/12/12 10:00:29;;;;;;;27.60;16.30;;;;;;;;;;4995896;28;20589;-71
2020/12/12 10:03:33;;;;;;;28.30;16.43;;;;;;;;;;4984217;28;20550;-72
2020/12/12 10:06:41;;;;;;;28.67;17.20;;;;;;;;;;4995543;28;20636;-71
2020/12/12 10:09:46;;;;;;;29.53;16.13;;;;;;;;;;4983650;28;20602;-71
2020/12/12 10:12:50;;;;;;;30.90;17.10;;;;;;;;;;4995212;28;21176;-71
2020/12/12 10:15:54;;;;;;;26.70;15.70;;;;;;;;;;4983916;28;20538;-72
2020/12/12 10:18:58;;;;;;;25.80;15.90;;;;;;;;;;4995390;28;20534;-71
2020/12/12 10:22:02;;;;;;;27.90;16.33;;;;;;;;;;4995517;28;21167;-72
2020/12/12 10:25:07;;;;;;;28.10;16.23;;;;;;;;;;4995187;28;20613;-72
2020/12/12 10:28:12;;;;;;;27.97;16.87;;;;;;;;;;4983319;28;20542;-72
2020/12/12 10:31:17;;;;;;;29.17;16.47;;;;;;;;;;4994392;28;20948;-72
2020/12/12 10:34:21;;;;;;;31.40;17.47;;;;;;;;;;4974081;28;20594;-72
2020/12/12 10:37:25;;;;;;;29.93;17.20;;;;;;;;;;4963769;28;20625;-73
2020/12/12 10:40:36;;;;;;;28.87;17.57;;;;;;;;;;4975757;28;20555;-72
2020/12/12 10:43:40;;;;;;;28.37;17.13;;;;;;;;;;4985341;28;20617;-72
2020/12/12 10:46:44;;;;;;;28.70;17.40;;;;;;;;;;4994635;28;20632;-72
2020/12/12 10:49:48;;;;;;;27.60;16.60;;;;;;;;;;4982633;28;20589;-72
2020/12/12 10:52:53;;;;;;;27.23;17.50;;;;;;;;;;4994279;28;20949;-72
2020/12/12 10:55:57;;;;;;;26.90;16.43;;;;;;;;;;4981823;28;20585;-72
2020/12/12 10:59:14;;;;;;;28.10;16.60;;;;;;;;;;4994289;28;21183;-71
2020/12/12 11:02:18;;;;;;;27.33;16.57;;;;;;;;;;4994579;28;20570;-72
2020/12/12 11:05:23;;;;;;;27.97;16.33;;;;;;;;;;4994829;28;20594;-72
2020/12/12 11:08:27;;;;;;;29.03;16.27;;;;;;;;;;4962371;28;20605;-72
2020/12/12 11:11:31;;;;;;;30.03;17.17;;;;;;;;;;4974707;28;20554;-72
2020/12/12 11:14:54;;;;;;;29.50;17.27;;;;;;;;;;4974981;28;20550;-72
2020/12/12 11:17:59;;;;;;;27.77;16.67;;;;;;;;;;4993509;28;20656;-71
2020/12/12 11:21:04;;;;;;;30.17;16.80;;;;;;;;;;4993615;28;20597;-71
2020/12/12 11:24:08;;;;;;;27.50;15.97;;;;;;;;;;4994041;28;20590;-71
2020/12/12 11:27:12;;;;;;;27.10;17.17;;;;;;;;;;4993202;28;21044;-71
2020/12/12 11:30:17;;;;;;;29.07;16.87;;;;;;;;;;4974415;28;20597;-70
2020/12/12 11:33:22;;;;;;;28.07;17.40;;;;;;;;;;4980237;28;20630;-71
2020/12/12 11:36:54;;;;;;;26.17;16.37;;;;;;;;;;4992918;28;21211;-71
2020/12/12 11:43:33;;;;;;;28.17;16.63;;;;;;;;;;4963650;28;20547;-71
2020/12/12 11:46:37;;;;;;;28.67;17.03;;;;;;;;;;5003651;23;20701;-82
2020/12/12 11:49:42;;;;;;;29.60;17.13;;;;;;;;;;4971490;28;20554;-81
2020/12/12 11:52:46;;;;;;;30.77;16.87;;;;;;;;;;4994288;28;20545;-81
2020/12/12 11:55:50;;;;;;;27.57;16.70;;;;;;;;;;4976033;28;21011;-81
2020/12/12 11:58:55;;;;;;;28.67;17.13;;;;;;;;;;4977598;28;20934;-81
2020/12/12 12:01:59;;;;;;;28.63;17.30;;;;;;;;;;4952739;28;21159;-81
2020/12/12 12:05:04;;;;;;;30.70;18.00;;;;;;;;;;4967719;28;20646;-83
2020/12/12 12:08:20;;;;;;;27.70;17.27;;;;;;;;;;4954738;28;20540;-83
2020/12/12 12:11:30;;;;;;;29.77;17.67;;;;;;;;;;4973867;28;20602;-83
2020/12/12 12:14:34;;;;;;;31.40;18.03;;;;;;;;;;4985982;28;20550;-83
2020/12/12 12:17:39;;;;;;;30.63;18.27;;;;;;;;;;4962265;28;20594;-84
2020/12/12 12:20:43;;;;;;;27.70;16.90;;;;;;;;;;4965951;28;20613;-83
2020/12/12 12:23:47;;;;;;;27.30;17.53;;;;;;;;;;4945092;28;20546;-83
2020/12/12 12:26:51;;;;;;;28.17;16.80;;;;;;;;;;4946800;29;20667;-84
2020/12/12 12:29:55;;;;;;;28.50;17.17;;;;;;;;;;4982373;28;21155;-84
2020/12/12 12:33:00;;;;;;;28.13;17.33;;;;;;;;;;4985237;28;20605;-83
2020/12/12 12:36:04;;;;;;;27.90;16.73;;;;;;;;;;4936322;29;20606;-83
2020/12/12 12:39:09;;;;;;;31.20;18.63;;;;;;;;;;4978419;28;22411;-83
2020/12/12 12:42:14;;;;;;;30.60;17.97;;;;;;;;;;4963531;28;20561;-83
2020/12/12 12:45:18;;;;;;;31.23;17.73;;;;;;;;;;4969323;28;20657;-84
2020/12/12 12:48:22;;;;;;;30.50;16.87;;;;;;;;;;4955501;28;20546;-86
2020/12/12 12:51:26;;;;;;;29.83;16.57;;;;;;;;;;4944304;28;20586;-84
2020/12/12 12:54:30;;;;;;;26.03;15.80;;;;;;;;;;4955256;28;20960;-84
2020/12/12 12:57:35;;;;;;;26.33;14.70;;;;;;;;;;4963097;28;20558;-83
2020/12/12 13:00:39;;;;;;;26.53;15.07;;;;;;;;;;4946393;28;20591;-86
2020/12/12 13:03:44;;;;;;;31.87;17.17;;;;;;;;;;4947425;29;20606;-84
2020/12/12 13:06:48;;;;;;;29.07;17.67;;;;;;;;;;4959351;28;20668;-85
2020/12/12 13:09:52;;;;;;;27.33;16.57;;;;;;;;;;4958926;28;20590;-85
2020/12/12 13:12:56;;;;;;;27.53;16.90;;;;;;;;;;4980840;28;20609;-84
2020/12/12 13:16:02;;;;;;;27.50;16.40;;;;;;;;;;4973895;28;21272;-83
2020/12/12 13:19:13;;;;;;;30.40;17.47;;;;;;;;;;4932523;28;20183;-83
2020/12/12 13:22:17;;;;;;;29.70;16.80;;;;;;;;;;4989807;28;20587;-83
2020/12/12 13:25:21;;;;;;;25.67;16.40;;;;;;;;;;4944333;28;20657;-83
2020/12/12 13:29:04;;;;;;;28.47;16.33;;;;;;;;;;4966037;28;20601;-83
2020/12/12 13:31:59;;;;;;;26.93;16.33;;;;;;;;;;4980719;28;20597;-84
2020/12/12 13:35:03;;;;;;;28.50;16.53;;;;;;;;;;4946075;28;20634;-81
2020/12/12 13:38:07;;;;;;;24.43;15.90;;;;;;;;;;4944446;28;21068;-81
2020/12/12 13:41:17;;;;;;;26.90;16.10;;;;;;;;;;4946687;29;20567;-81
2020/12/12 13:44:21;;;;;;;28.67;17.27;;;;;;;;;;4946397;29;20543;-81
2020/12/12 13:47:25;;;;;;;26.90;17.43;;;;;;;;;;4934241;29;21120;-81
2020/12/12 13:50:29;;;;;;;29.53;17.30;;;;;;;;;;4934279;29;20552;-85
2020/12/12 13:53:34;;;;;;;29.93;16.20;;;;;;;;;;4956065;29;20548;-83
2020/12/12 13:56:38;;;;;;;27.93;16.30;;;;;;;;;;4945190;29;20626;-84
2020/12/12 13:59:42;;;;;;;29.10;16.70;;;;;;;;;;4945029;29;21082;-84
2020/12/12 14:02:47;;;;;;;27.53;16.70;;;;;;;;;;4933777;29;20548;-84
2020/12/12 14:05:54;;;;;;;28.33;16.57;;;;;;;;;;4956268;28;20665;-83
2020/12/12 14:25:23;;;;;;;28.90;16.70;;;;;;;;;;4983121;28;20625;-84
2020/12/12 14:28:27;;;;;;;26.63;16.40;;;;;;;;;;4969628;28;20923;-84
2020/12/12 14:31:31;;;;;;;30.33;16.67;;;;;;;;;;4963286;28;20546;-83
2020/12/12 14:34:35;;;;;;;29.40;17.13;;;;;;;;;;4944442;29;21161;-83
2020/12/12 14:37:39;;;;;;;26.53;16.67;;;;;;;;;;4922600;29;20577;-83
2020/12/12 14:40:44;;;;;;;28.83;17.07;;;;;;;;;;4952107;28;20583;-84
2020/12/12 14:43:48;;;;;;;27.23;17.03;;;;;;;;;;4958717;28;20590;-84
2020/12/12 14:47:27;;;;;;;31.43;17.53;;;;;;;;;;5076264;27;20817;-72
2020/12/12 14:50:32;;;;;;;30.67;17.27;;;;;;;;;;5057898;28;20608;-71
2020/12/12 14:53:36;;;;;;;31.17;18.23;;;;;;;;;;5070561;28;20530;-72
2020/12/12 14:56:41;;;;;;;29.43;18.00;;;;;;;;;;4948149;28;20707;-72
2020/12/12 14:59:45;;;;;;;32.10;18.17;;;;;;;;;;5030371;28;20184;-72
2020/12/12 15:02:49;;;;;;;29.97;17.57;;;;;;;;;;5046929;28;20579;-72
2020/12/12 15:05:53;;;;;;;30.40;17.30;;;;;;;;;;5037835;28;20626;-73
2020/12/12 15:08:59;;;;;;;32.60;17.97;;;;;;;;;;5050203;28;21074;-71
2020/12/12 15:12:03;;;;;;;33.30;18.60;;;;;;;;;;5049656;28;21104;-72
2020/12/12 15:15:09;;;;;;;31.63;17.77;;;;;;;;;;5049359;28;20587;-72
2020/12/12 15:18:13;;;;;;;32.87;18.73;;;;;;;;;;5049020;28;20567;-72
2020/12/12 15:21:17;;;;;;;33.03;18.07;;;;;;;;;;5037428;28;20591;-72
2020/12/12 15:24:21;;;;;;;31.77;19.17;;;;;;;;;;5037503;28;20594;-72
2020/12/12 15:27:26;;;;;;;31.93;18.13;;;;;;;;;;5048818;28;20662;-72
2020/12/12 15:30:35;;;;;;;35.13;18.07;;;;;;;;;;5049734;28;20598;-73
2020/12/12 15:33:40;;;;;;;33.57;18.87;;;;;;;;;;5049697;28;20547;-72
2020/12/12 15:36:45;;;;;;;32.83;18.13;;;;;;;;;;5049028;28;20638;-72
2020/12/12 15:39:49;;;;;;;36.93;19.37;;;;;;;;;;5049587;28;20906;-72
2020/12/12 15:42:54;;;;;;;33.87;19.03;;;;;;;;;;5039594;28;20617;-72
2020/12/12 15:45:58;;;;;;;33.57;19.27;;;;;;;;;;5036566;28;20658;-72
2020/12/12 15:49:04;;;;;;;34.27;18.87;;;;;;;;;;5039646;28;20575;-72
2020/12/12 15:52:10;;;;;;;32.43;18.73;;;;;;;;;;5039848;28;20557;-72
2020/12/12 15:55:14;;;;;;;34.43;19.07;;;;;;;;;;5025368;28;20934;-72
2020/12/12 15:58:18;;;;;;;32.73;20.00;;;;;;;;;;5019133;28;20536;-72
2020/12/12 16:01:22;;;;;;;33.40;18.83;;;;;;;;;;5041809;28;21148;-72
2020/12/12 16:04:26;;;;;;;35.27;19.70;;;;;;;;;;5056235;28;21064;-72
2020/12/12 16:07:31;;;;;;;33.00;18.13;;;;;;;;;;5043628;28;20982;-72
2020/12/12 16:10:35;;;;;;;31.83;18.83;;;;;;;;;;5031606;28;20622;-72
2020/12/12 16:13:41;;;;;;;38.10;20.40;;;;;;;;;;5035493;28;20587;-72
2020/12/12 16:16:45;;;;;;;32.60;17.80;;;;;;;;;;5026121;28;20639;-72
2020/12/12 16:19:49;;;;;;;36.83;19.50;;;;;;;;;;5033822;28;20587;-72
2020/12/12 16:22:53;;;;;;;30.37;18.50;;;;;;;;;;5022163;28;20591;-72
2020/12/12 16:25:57;;;;;;;34.50;19.13;;;;;;;;;;5016503;28;20620;-72
2020/12/12 16:29:01;;;;;;;36.03;18.90;;;;;;;;;;5003482;28;20588;-72
2020/12/12 16:32:05;;;;;;;34.60;18.97;;;;;;;;;;5015377;28;20581;-72
2020/12/12 16:35:11;;;;;;;34.73;19.23;;;;;;;;;;5032841;28;20943;-72
2020/12/12 16:38:15;;;;;;;30.10;18.27;;;;;;;;;;5019281;28;20612;-72
2020/12/12 16:41:24;;;;;;;34.60;19.00;;;;;;;;;;5035014;28;20939;-72
2020/12/12 16:44:28;;;;;;;30.00;17.27;;;;;;;;;;5032763;28;20583;-72
2020/12/12 16:47:32;;;;;;;31.70;18.47;;;;;;;;;;5026200;28;20663;-72
2020/12/12 16:50:37;;;;;;;32.87;19.07;;;;;;;;;;5006000;28;20615;-72
2020/12/12 16:53:41;;;;;;;31.40;17.70;;;;;;;;;;5034873;28;20544;-72
2020/12/12 16:56:46;;;;;;;34.27;19.40;;;;;;;;;;5034837;28;20615;-72
2020/12/12 16:59:51;;;;;;;33.93;18.93;;;;;;;;;;5020328;28;20616;-72
2020/12/12 17:02:55;;;;;;;29.20;16.10;;;;;;;;;;5002791;28;20600;-72
2020/12/12 17:05:59;;;;;;;32.13;18.57;;;;;;;;;;5014798;28;20628;-72
2020/12/12 17:09:05;;;;;;;30.60;17.43;;;;;;;;;;5022965;28;20611;-72
2020/12/12 17:12:09;;;;;;;27.73;16.90;;;;;;;;;;5034508;28;20583;-72
2020/12/12 17:15:13;;;;;;;29.07;17.77;;;;;;;;;;5033760;28;20619;-72
2020/12/12 17:18:17;;;;;;;31.93;19.77;;;;;;;;;;5031881;28;20548;-72
2020/12/12 17:21:28;;;;;;;32.93;18.30;;;;;;;;;;5031874;28;20623;-72
2020/12/12 17:24:32;;;;;;;28.40;16.87;;;;;;;;;;5014584;28;21074;-72
2020/12/12 17:27:38;;;;;;;30.83;17.93;;;;;;;;;;5014539;28;20648;-72
2020/12/12 17:30:42;;;;;;;30.93;18.20;;;;;;;;;;5025553;28;20584;-72
2020/12/12 17:33:46;;;;;;;28.73;16.20;;;;;;;;;;5029697;28;20202;-72
2020/12/12 17:36:52;;;;;;;29.97;17.47;;;;;;;;;;5021836;28;20224;-72
2020/12/12 17:39:56;;;;;;;30.60;18.30;;;;;;;;;;5028478;28;20584;-72
2020/12/12 17:43:00;;;;;;;31.53;17.83;;;;;;;;;;5041840;28;20536;-72
2020/12/12 17:46:04;;;;;;;31.73;17.53;;;;;;;;;;5032034;28;21003;-72
2020/12/12 17:49:10;;;;;;;34.43;17.43;;;;;;;;;;5022320;28;20591;-72
2020/12/12 17:52:14;;;;;;;29.27;15.87;;;;;;;;;;5021087;28;20599;-72
2020/12/12 17:55:21;;;;;;;25.87;16.07;;;;;;;;;;5033799;28;20556;-72
2020/12/12 17:58:26;;;;;;;28.47;16.40;;;;;;;;;;5029588;28;21168;-72
2020/12/12 18:01:35;;;;;;;29.13;16.37;;;;;;;;;;5031242;28;20619;-72
2020/12/12 18:04:39;;;;;;;28.50;16.03;;;;;;;;;;5033467;28;20540;-72
2020/12/12 18:07:43;;;;;;;32.30;18.00;;;;;;;;;;5021155;28;20646;-72
2020/12/12 18:10:49;;;;;;;31.37;17.63;;;;;;;;;;5013599;28;20615;-72
2020/12/12 18:13:53;;;;;;;27.70;15.77;;;;;;;;;;5014902;28;21062;-73
2020/12/12 18:17:00;;;;;;;29.67;17.27;;;;;;;;;;5032261;28;20631;-73
2020/12/12 18:20:04;;;;;;;26.63;16.03;;;;;;;;;;5017719;28;20593;-72